createdAt,value
2018-01-27T00:01:22.676Z,159.73
2018-01-27T00:03:50.619Z,171.87
2018-01-27T00:06:18.242Z,169.77
2018-01-27T00:08:50.276Z,157.00
2018-01-27T00:11:20.503Z,163.07
2018-01-27T00:13:52.604Z,156.10
2018-01-27T00:16:20.926Z,163.50
2018-01-27T00:18:48.885Z,163.33
2018-01-27T00:21:16.851Z,152.90
2018-01-27T00:23:45.114Z,157.97
2018-01-27T00:26:17.221Z,158.10
2018-01-27T00:28:47.429Z,154.50
2018-01-27T00:31:15.494Z,153.77
2018-01-27T00:33:45.770Z,148.93
2018-01-27T00:36:14.101Z,153.27
2018-01-27T00:38:44.082Z,156.63
2018-01-27T00:41:11.848Z,153.53
2018-01-27T00:43:40.149Z,148.40
2018-01-27T00:46:08.156Z,145.37
2018-01-27T00:48:38.618Z,140.30
2018-01-27T00:51:06.523Z,140.73
2018-01-27T00:53:37.061Z,151.17
2018-01-27T00:56:05.422Z,140.83
2018-01-27T00:58:33.798Z,130.90
2018-01-27T01:01:02.673Z,135.73
2018-01-27T01:03:32.887Z,136.73
2018-01-27T01:06:00.855Z,135.63
2018-01-27T01:08:28.918Z,137.20
2018-01-27T01:11:01.221Z,140.67
2018-01-27T01:13:33.341Z,135.10
2018-01-27T01:16:01.439Z,142.03
2018-01-27T01:18:31.586Z,131.70
2018-01-27T01:20:59.469Z,131.57
2018-01-27T01:23:27.587Z,138.97
2018-01-27T01:25:55.551Z,141.23
2018-01-27T01:28:23.859Z,135.87
2018-01-27T01:30:52.134Z,138.57
2018-01-27T01:33:20.073Z,140.23
2018-01-27T01:35:48.265Z,140.80
2018-01-27T01:38:16.403Z,137.57
2018-01-27T01:40:44.519Z,135.63
2018-01-27T01:43:20.461Z,129.67
2018-01-27T01:45:48.401Z,138.50
2018-01-27T01:48:16.592Z,133.53
2018-01-27T01:50:44.556Z,131.47
2018-01-27T01:53:14.773Z,138.07
2018-01-27T01:55:42.964Z,130.00
2018-01-27T01:58:10.669Z,128.60
2018-01-27T02:00:38.792Z,126.43
2018-01-27T02:03:06.760Z,127.23
2018-01-27T02:05:35.070Z,131.43
2018-01-27T02:08:03.313Z,126.33
2018-01-27T02:10:31.289Z,129.40
2018-01-27T02:13:01.122Z,125.43
2018-01-27T02:15:28.961Z,125.60
2018-01-27T02:17:56.701Z,128.50
2018-01-27T02:20:25.020Z,126.43
2018-01-27T02:22:55.250Z,118.40
2018-01-27T02:25:27.618Z,119.73
2018-01-27T02:27:56.810Z,122.93
2018-01-27T02:30:26.931Z,116.73
2018-01-27T02:32:55.206Z,124.30
2018-01-27T02:35:23.069Z,123.77
2018-01-27T02:37:50.924Z,121.47
2018-01-27T02:40:18.809Z,125.17
2018-01-27T02:42:46.588Z,128.13
2018-01-27T02:45:14.955Z,121.37
2018-01-27T02:47:45.221Z,122.73
2018-01-27T02:50:13.307Z,118.17
2018-01-27T02:52:43.543Z,119.77
2018-01-27T02:55:11.846Z,123.37
2018-01-27T02:57:40.213Z,119.07
2018-01-27T03:00:08.074Z,116.77
2018-01-27T03:02:38.507Z,112.93
2018-01-27T03:05:06.393Z,113.37
2018-01-27T03:07:34.410Z,111.70
2018-01-27T03:10:02.605Z,106.80
2018-01-27T03:12:30.491Z,105.53
2018-01-27T03:14:58.357Z,111.10
2018-01-27T03:17:28.482Z,112.63
2018-01-27T03:19:58.693Z,105.47
2018-01-27T03:22:26.653Z,107.30
2018-01-27T03:24:54.592Z,108.00
2018-01-27T03:27:22.807Z,104.27
2018-01-27T03:29:50.923Z,100.67
2018-01-27T03:32:18.741Z,99.53
2018-01-27T03:34:46.979Z,101.40
2018-01-27T03:37:14.943Z,101.27
2018-01-27T03:39:43.138Z,94.53
2018-01-27T03:42:11.077Z,96.97
2018-01-27T03:44:39.142Z,91.73
2018-01-27T03:47:07.233Z,99.17
2018-01-27T03:49:35.424Z,98.60
2018-01-27T03:52:03.310Z,94.87
2018-01-27T03:54:31.392Z,94.93
2018-01-27T03:56:59.229Z,92.13
2018-01-27T03:59:26.959Z,92.47
2018-01-27T04:01:55.283Z,96.83
2018-01-27T04:04:23.668Z,91.53
2018-01-27T04:06:51.482Z,92.07
2018-01-27T04:09:19.697Z,94.70
2018-01-27T04:11:47.764Z,98.23
2018-01-27T04:14:15.506Z,105.80
2018-01-27T04:16:44.528Z,101.13
2018-01-27T04:19:12.695Z,109.20
2018-01-27T04:21:40.525Z,104.50
2018-01-27T04:24:08.712Z,118.57
2018-01-27T04:26:36.654Z,120.07
2018-01-27T04:29:04.844Z,123.70
2018-01-27T04:31:32.845Z,133.33
2018-01-27T04:34:00.975Z,129.50
2018-01-27T04:36:43.525Z,131.30
2018-01-27T04:39:26.446Z,133.00
2018-01-27T04:42:09.681Z,138.13
2018-01-27T04:44:54.034Z,133.80
2018-01-27T04:47:37.148Z,144.43
2018-01-27T04:50:05.291Z,146.20
2018-01-27T04:52:33.255Z,145.93
2018-01-27T04:55:01.471Z,146.87
2018-01-27T04:57:29.537Z,141.30
2018-01-27T04:59:57.450Z,140.07
2018-01-27T05:02:25.173Z,142.57
2018-01-27T05:04:53.142Z,142.83
2018-01-27T05:07:21.199Z,137.10
2018-01-27T05:09:49.140Z,143.20
2018-01-27T05:12:17.756Z,141.10
2018-01-27T05:14:45.648Z,135.33
2018-01-27T05:17:14.083Z,132.13
2018-01-27T05:19:42.025Z,138.20
2018-01-27T05:22:10.216Z,142.80
2018-01-27T05:24:38.180Z,149.17
2018-01-27T05:27:06.370Z,146.80
2018-01-27T05:29:34.437Z,160.00
2018-01-27T05:32:02.475Z,150.37
2018-01-27T05:34:30.568Z,159.43
2018-01-27T05:36:59.458Z,164.90
2018-01-27T05:39:27.646Z,163.53
2018-01-27T05:41:55.589Z,161.10
2018-01-27T05:44:23.204Z,164.27
2018-01-27T05:46:51.058Z,165.00
2018-01-27T05:49:18.822Z,166.87
2018-01-27T05:51:46.592Z,179.87
2018-01-27T05:54:14.232Z,165.60
2018-01-27T05:56:41.934Z,175.33
2018-01-27T05:59:10.567Z,168.70
2018-01-27T06:01:38.217Z,173.53
2018-01-27T06:04:06.309Z,181.27
2018-01-27T06:06:34.661Z,165.80
2018-01-27T06:09:02.251Z,180.33
2018-01-27T06:11:31.352Z,173.30
2018-01-27T06:13:59.684Z,177.63
2018-01-27T06:16:27.907Z,173.00
2018-01-27T06:18:55.973Z,181.67
2018-01-27T06:21:23.724Z,171.03
2018-01-27T06:23:52.127Z,171.23
2018-01-27T06:26:19.944Z,167.63
2018-01-27T06:28:47.573Z,162.90
2018-01-27T06:31:16.046Z,167.10
2018-01-27T06:33:44.504Z,158.53
2018-01-27T06:36:12.167Z,169.27
2018-01-27T06:38:40.119Z,156.07
2018-01-27T06:41:07.896Z,158.93
2018-01-27T06:43:35.912Z,164.80
2018-01-27T06:46:03.511Z,155.50
2018-01-27T06:48:31.291Z,155.10
2018-01-27T06:50:59.176Z,153.90
2018-01-27T06:53:27.324Z,156.93
2018-01-27T06:55:55.415Z,157.77
2018-01-27T06:58:23.270Z,154.77
2018-01-27T07:00:51.086Z,156.67
2018-01-27T07:03:18.724Z,145.63
2018-01-27T07:05:46.554Z,152.60
2018-01-27T07:08:14.153Z,143.17
2018-01-27T07:10:42.250Z,144.33
2018-01-27T07:13:10.390Z,140.97
2018-01-27T07:15:38.329Z,137.70
2018-01-27T07:18:06.151Z,130.23
2018-01-27T07:20:34.137Z,125.63
2018-01-27T07:23:01.733Z,135.03
2018-01-27T07:25:29.898Z,130.90
2018-01-27T07:27:57.963Z,121.17
2018-01-27T07:30:25.730Z,126.90
2018-01-27T07:32:53.639Z,119.70
2018-01-27T07:35:21.875Z,115.30
2018-01-27T07:37:49.569Z,119.90
2018-01-27T07:40:17.707Z,121.80
2018-01-27T07:42:46.093Z,109.73
2018-01-27T07:45:14.616Z,105.30
2018-01-27T07:47:43.308Z,103.20
2018-01-27T07:50:11.211Z,105.87
2018-01-27T07:52:39.606Z,104.20
2018-01-27T07:55:07.565Z,100.37
2018-01-27T07:57:35.566Z,95.27
2018-01-27T08:00:04.433Z,90.13
2018-01-27T08:02:32.710Z,90.97
2018-01-27T08:05:00.668Z,92.83
2018-01-27T08:07:28.846Z,93.63
2018-01-27T08:09:57.422Z,91.73
2018-01-27T08:12:25.561Z,103.93
2018-01-27T08:14:53.977Z,87.10
2018-01-27T08:17:21.840Z,85.70
2018-01-27T08:19:49.560Z,79.83
2018-01-27T08:22:17.375Z,81.03
2018-01-27T08:24:45.129Z,79.57
2018-01-27T08:27:13.915Z,77.93
2018-01-27T08:29:42.205Z,79.23
2018-01-27T08:32:10.537Z,76.80
2018-01-27T08:34:38.887Z,76.03
2018-01-27T08:37:06.894Z,75.10
2018-01-27T08:39:35.707Z,75.33
2018-01-27T08:42:04.395Z,74.63
2018-01-27T08:44:32.359Z,73.03
2018-01-27T08:47:00.536Z,70.50
2018-01-27T08:49:29.529Z,66.83
2018-01-27T08:51:58.105Z,68.83
2018-01-27T08:54:26.268Z,67.43
2018-01-27T08:56:54.342Z,67.03
2018-01-27T08:59:22.343Z,64.10
2018-01-27T09:01:50.013Z,68.53
2018-01-27T09:04:18.137Z,64.40
2018-01-27T09:06:45.773Z,65.60
2018-01-27T09:09:13.784Z,59.80
2018-01-27T09:11:41.687Z,63.30
2018-01-27T09:14:09.776Z,61.23
2018-01-27T09:16:37.844Z,61.53
2018-01-27T09:19:05.939Z,58.03
2018-01-27T09:21:33.874Z,59.00
2018-01-27T09:24:01.470Z,66.53
2018-01-27T09:26:30.484Z,55.20
2018-01-27T09:28:58.342Z,55.47
2018-01-27T09:31:26.322Z,55.53
2018-01-27T09:33:53.919Z,53.87
2018-01-27T09:36:21.947Z,52.50
2018-01-27T09:38:49.701Z,55.23
2018-01-27T09:41:17.672Z,51.13
2018-01-27T09:43:45.741Z,51.23
2018-01-27T09:46:13.925Z,51.97
2018-01-27T09:48:41.952Z,53.30
2018-01-27T09:51:09.936Z,54.10
2018-01-27T09:53:37.832Z,54.90
2018-01-27T09:56:05.593Z,52.67
2018-01-27T09:58:33.351Z,48.17
2018-01-27T10:01:01.335Z,49.23
2018-01-27T10:03:29.323Z,47.90
2018-01-27T10:05:57.006Z,45.87
2018-01-27T10:08:25.026Z,53.83
2018-01-27T10:10:52.789Z,43.53
2018-01-27T10:13:20.553Z,47.97
2018-01-27T10:15:49.009Z,49.57
2018-01-27T10:18:16.739Z,46.03
2018-01-27T10:20:44.768Z,46.63
2018-01-27T10:23:12.840Z,48.20
2018-01-27T10:25:40.921Z,45.37
2018-01-27T10:28:09.589Z,44.83
2018-01-27T10:30:37.205Z,46.03
2018-01-27T10:33:05.118Z,46.37
2018-01-27T10:35:32.984Z,49.77
2018-01-27T10:38:00.655Z,46.07
2018-01-27T10:40:28.784Z,45.53
2018-01-27T10:42:57.108Z,45.50
2018-01-27T10:45:24.861Z,44.67
2018-01-27T10:47:52.462Z,48.20
2018-01-27T10:50:20.535Z,50.77
2018-01-27T10:52:48.639Z,46.17
2018-01-27T10:55:16.895Z,45.13
2018-01-27T10:57:44.992Z,46.07
2018-01-27T11:00:13.287Z,44.07
2018-01-27T11:02:41.048Z,44.27
2018-01-27T11:05:09.371Z,47.10
2018-01-27T11:07:37.761Z,44.80
2018-01-27T11:10:06.125Z,46.13
2018-01-27T11:12:34.867Z,49.67
2018-01-27T11:15:03.702Z,52.73
2018-01-27T11:17:31.296Z,48.17
2018-01-27T11:19:59.081Z,49.10
2018-01-27T11:22:27.047Z,46.50
2018-01-27T11:24:55.185Z,47.13
2018-01-27T11:27:22.985Z,49.43
2018-01-27T11:29:50.851Z,48.77
2018-01-27T11:32:18.819Z,49.50
2018-01-27T11:34:46.460Z,47.33
2018-01-27T11:37:14.554Z,46.73
2018-01-27T11:39:42.143Z,49.23
2018-01-27T11:42:10.240Z,45.43
2018-01-27T11:44:38.572Z,49.77
2018-01-27T11:47:06.521Z,44.90
2018-01-27T11:49:34.586Z,46.30
2018-01-27T11:52:02.628Z,45.33
2018-01-27T11:54:31.551Z,42.40
2018-01-27T11:56:59.920Z,47.40
2018-01-27T11:59:28.214Z,43.90
2018-01-27T12:01:56.364Z,46.20
2018-01-27T12:04:24.467Z,44.23
2018-01-27T12:06:52.597Z,44.03
2018-01-27T12:09:20.562Z,44.53
2018-01-27T12:11:48.764Z,47.77
2018-01-27T12:14:16.844Z,46.33
2018-01-27T12:16:45.638Z,49.00
2018-01-27T12:19:13.473Z,45.10
2018-01-27T12:21:41.323Z,43.40
2018-01-27T12:24:09.430Z,47.17
2018-01-27T12:26:37.493Z,45.87
2018-01-27T12:29:05.560Z,43.73
2018-01-27T12:31:33.661Z,43.47
2018-01-27T12:34:01.720Z,49.13
2018-01-27T12:36:29.706Z,47.33
2018-01-27T12:38:57.847Z,44.57
2018-01-27T12:41:25.911Z,44.40
2018-01-27T12:43:53.868Z,46.77
2018-01-27T12:46:22.971Z,47.23
2018-01-27T12:48:50.935Z,49.87
2018-01-27T12:51:19.001Z,46.33
2018-01-27T12:53:47.101Z,43.00
2018-01-27T12:56:15.232Z,45.93
2018-01-27T12:58:43.297Z,42.63
2018-01-27T13:01:11.288Z,41.30
2018-01-27T13:03:38.979Z,43.30
2018-01-27T13:06:06.894Z,41.27
2018-01-27T13:08:34.733Z,42.63
2018-01-27T13:11:02.886Z,41.87
2018-01-27T13:13:30.717Z,38.10
2018-01-27T13:15:58.782Z,42.47
2018-01-27T13:18:26.845Z,41.33
2018-01-27T13:20:55.167Z,37.80
2018-01-27T13:23:23.038Z,44.60
2018-01-27T13:25:51.167Z,37.33
2018-01-27T13:28:19.133Z,41.13
2018-01-27T13:30:47.200Z,42.53
2018-01-27T13:33:15.295Z,40.70
2018-01-27T13:35:43.480Z,36.40
2018-01-27T13:38:11.548Z,42.70
2018-01-27T13:40:39.612Z,37.97
2018-01-27T13:43:07.677Z,40.63
2018-01-27T13:45:35.886Z,42.67
2018-01-27T13:48:04.313Z,39.43
2018-01-27T13:50:32.634Z,40.40
2018-01-27T13:53:00.714Z,42.13
2018-01-27T13:55:28.830Z,38.83
2018-01-27T13:57:57.031Z,40.63
2018-01-27T14:00:25.124Z,41.37
2018-01-27T14:02:54.029Z,41.57
2018-01-27T14:05:22.143Z,41.80
2018-01-27T14:07:50.769Z,40.10
2018-01-27T14:10:18.803Z,36.93
2018-01-27T14:12:46.988Z,42.03
2018-01-27T14:15:15.083Z,37.10
2018-01-27T14:17:43.148Z,42.40
2018-01-27T14:20:11.222Z,42.83
2018-01-27T14:22:39.287Z,41.33
2018-01-27T14:25:07.343Z,40.97
2018-01-27T14:27:35.410Z,39.20
2018-01-27T14:30:03.473Z,38.17
2018-01-27T14:32:32.365Z,42.40
2018-01-27T14:35:00.413Z,44.93
2018-01-27T14:37:29.423Z,44.33
2018-01-27T14:39:57.486Z,39.87
2018-01-27T14:42:26.601Z,44.70
2018-01-27T14:44:54.667Z,43.20
2018-01-27T14:47:22.758Z,41.23
2018-01-27T14:49:50.833Z,41.50
2018-01-27T14:52:19.027Z,41.23
2018-01-27T14:54:47.389Z,44.50
2018-01-27T14:57:15.381Z,47.57
2018-01-27T14:59:43.533Z,41.47
2018-01-27T15:02:11.804Z,44.83
2018-01-27T15:04:39.877Z,45.60
2018-01-27T15:07:07.932Z,45.03
2018-01-27T15:09:35.973Z,57.20
2018-01-27T15:12:04.194Z,55.67
2018-01-27T15:14:33.887Z,52.77
2018-01-27T15:17:03.125Z,44.93
2018-01-27T15:19:31.666Z,48.53
2018-01-27T15:21:59.650Z,44.63
2018-01-27T15:24:27.793Z,45.73
2018-01-27T15:26:56.311Z,45.73
2018-01-27T15:29:27.446Z,53.33
2018-01-27T15:31:57.371Z,45.43
2018-01-27T15:34:27.543Z,49.60
2018-01-27T15:36:55.548Z,52.83
2018-01-27T15:39:23.486Z,53.87
2018-01-27T15:41:51.509Z,51.70
2018-01-27T15:44:19.262Z,59.97
2018-01-27T15:46:47.014Z,49.97
2018-01-27T15:49:15.247Z,71.73
2018-01-27T15:51:44.371Z,68.27
2018-01-27T15:54:13.203Z,61.73
2018-01-27T15:56:41.755Z,68.87
2018-01-27T15:59:10.008Z,67.40
2018-01-27T16:01:38.824Z,82.90
2018-01-27T16:04:06.788Z,82.90
2018-01-27T16:06:34.859Z,90.73
2018-01-27T16:09:04.568Z,81.80
2018-01-27T16:11:33.320Z,93.30
2018-01-27T16:14:01.609Z,98.23
2018-01-27T16:16:29.541Z,111.83
2018-01-27T16:18:57.471Z,113.50
2018-01-27T16:21:25.118Z,111.30
2018-01-27T16:23:53.190Z,129.00
2018-01-27T16:26:22.541Z,125.20
2018-01-27T16:28:51.396Z,136.80
2018-01-27T16:31:19.862Z,126.97
2018-01-27T16:33:48.101Z,144.93
2018-01-27T16:36:16.329Z,151.07
2018-01-27T16:38:44.798Z,161.30
2018-01-27T16:41:12.585Z,163.67
2018-01-27T16:43:40.633Z,194.97
2018-01-27T16:46:09.636Z,189.70
2018-01-27T16:48:38.004Z,201.27
2018-01-27T16:51:07.086Z,208.73
2018-01-27T16:53:35.683Z,205.77
2018-01-27T16:56:04.229Z,206.30
2018-01-27T16:58:33.267Z,213.63
2018-01-27T17:01:01.430Z,217.10
2018-01-27T17:03:31.241Z,218.00
2018-01-27T17:05:59.465Z,238.70
2018-01-27T17:08:27.705Z,229.97
2018-01-27T17:10:55.735Z,238.43
2018-01-27T17:13:24.631Z,252.70
2018-01-27T17:15:52.636Z,236.87
2018-01-27T17:18:20.841Z,249.97
2018-01-27T17:20:48.946Z,243.67
2018-01-27T17:23:16.914Z,247.63
2018-01-27T17:25:46.134Z,242.40
2018-01-27T17:28:14.510Z,257.27
2018-01-27T17:30:42.285Z,255.27
2018-01-27T17:33:09.997Z,258.23
2018-01-27T17:35:39.029Z,259.90
2018-01-27T17:38:08.023Z,263.00
2018-01-27T17:40:37.556Z,259.47
2018-01-27T17:43:06.622Z,262.23
2018-01-27T17:45:34.450Z,277.07
2018-01-27T17:48:03.268Z,269.23
2018-01-27T17:50:31.631Z,259.03
2018-01-27T17:52:59.733Z,272.67
2018-01-27T17:55:27.766Z,265.60
2018-01-27T17:57:55.730Z,263.60
2018-01-27T18:00:24.061Z,262.53
2018-01-27T18:02:53.031Z,286.20
2018-01-27T18:05:21.118Z,278.07
2018-01-27T18:07:49.626Z,274.23
2018-01-27T18:10:18.357Z,270.97
2018-01-27T18:12:46.333Z,284.07
2018-01-27T18:15:14.614Z,293.17
2018-01-27T18:17:43.617Z,295.13
2018-01-27T18:20:12.495Z,294.13
2018-01-27T18:22:40.735Z,299.77
2018-01-27T18:25:08.924Z,295.97
2018-01-27T18:27:36.901Z,308.50
2018-01-27T18:30:05.194Z,324.83
2018-01-27T18:32:33.383Z,320.03
2018-01-27T18:35:01.413Z,335.07
2018-01-27T18:37:29.580Z,339.43
2018-01-27T18:39:57.968Z,344.40
2018-01-27T18:42:26.960Z,367.00
2018-01-27T18:44:54.951Z,357.43
2018-01-27T18:47:23.715Z,368.00
2018-01-27T18:49:51.682Z,365.97
2018-01-27T18:52:20.592Z,376.23
2018-01-27T18:54:48.674Z,371.63
2018-01-27T18:57:17.709Z,380.73
2018-01-27T18:59:45.952Z,382.60
2018-01-27T19:02:14.722Z,375.23
2018-01-27T19:04:42.972Z,377.77
2018-01-27T19:07:11.050Z,382.80
2018-01-27T19:09:39.654Z,369.77
2018-01-27T19:12:07.935Z,370.63
2018-01-27T19:14:36.134Z,352.60
2018-01-27T19:17:05.102Z,360.90
2018-01-27T19:19:33.071Z,351.60
2018-01-27T19:22:00.698Z,323.00
2018-01-27T19:24:28.849Z,321.30
2018-01-27T19:26:57.638Z,312.23
2018-01-27T19:29:26.881Z,317.43
2018-01-27T19:31:55.944Z,307.13
2018-01-27T19:34:24.133Z,303.17
2018-01-27T19:36:53.050Z,315.87
2018-01-27T19:39:21.274Z,305.13
2018-01-27T19:41:49.608Z,288.03
2018-01-27T19:44:17.622Z,295.60
2018-01-27T19:46:46.459Z,277.70
2018-01-27T19:49:15.256Z,269.73
2018-01-27T19:51:43.510Z,271.27
2018-01-27T19:54:12.057Z,261.67
2018-01-27T19:56:40.809Z,261.27
2018-01-27T19:59:09.166Z,238.77
2018-01-27T20:01:37.338Z,226.30
2018-01-27T20:04:06.180Z,221.30
2018-01-27T20:06:34.264Z,217.60
2018-01-27T20:09:03.277Z,219.30
2018-01-27T20:11:31.641Z,209.77
2018-01-27T20:13:59.584Z,209.10
2018-01-27T20:16:27.802Z,199.33
2018-01-27T20:18:55.674Z,198.50
2018-01-27T20:21:24.662Z,198.73
2018-01-27T20:23:55.020Z,193.80
2018-01-27T20:26:23.571Z,186.03
2018-01-27T20:28:51.701Z,181.57
2018-01-27T20:31:19.708Z,176.70
2018-01-27T20:33:47.660Z,185.43
2018-01-27T20:36:16.048Z,174.77
2018-01-27T20:38:44.022Z,180.33
2018-01-27T20:41:13.180Z,184.80
2018-01-27T20:43:42.214Z,181.43
2018-01-27T20:46:11.823Z,160.40
2018-01-27T20:48:40.701Z,166.70
2018-01-27T20:51:08.639Z,170.60
2018-01-27T20:53:37.328Z,161.53
2018-01-27T20:56:05.821Z,160.13
2018-01-27T20:58:33.786Z,164.17
2018-01-27T21:01:02.661Z,164.50
2018-01-27T21:03:31.382Z,164.47
2018-01-27T21:05:59.317Z,171.83
2018-01-27T21:08:28.452Z,168.47
2018-01-27T21:10:56.749Z,172.63
2018-01-27T21:13:25.279Z,171.47
2018-01-27T21:15:53.632Z,168.97
2018-01-27T21:18:21.872Z,176.57
2018-01-27T21:20:50.345Z,166.93
2018-01-27T21:23:18.731Z,167.10
2018-01-27T21:25:47.724Z,167.00
2018-01-27T21:28:16.574Z,166.90
2018-01-27T21:30:44.937Z,170.57
2018-01-27T21:33:13.281Z,173.53
2018-01-27T21:35:41.532Z,166.90
2018-01-27T21:38:09.297Z,170.40
2018-01-27T21:40:37.200Z,178.03
2018-01-27T21:43:05.142Z,176.83
2018-01-27T21:45:33.209Z,184.57
2018-01-27T21:48:01.451Z,176.40
2018-01-27T21:50:29.660Z,177.50
2018-01-27T21:52:57.777Z,182.40
2018-01-27T21:55:26.099Z,180.00
2018-01-27T21:57:54.356Z,192.27
2018-01-27T22:00:23.276Z,185.60
2018-01-27T22:02:51.896Z,188.63
2018-01-27T22:05:20.030Z,199.40
2018-01-27T22:07:49.217Z,190.23
2018-01-27T22:10:17.595Z,181.30
2018-01-27T22:12:45.427Z,188.17
2018-01-27T22:15:14.117Z,189.10
2018-01-27T22:17:43.950Z,191.30
2018-01-27T22:20:12.221Z,193.07
2018-01-27T22:22:40.175Z,192.37
2018-01-27T22:25:08.229Z,189.00
2018-01-27T22:27:36.455Z,192.10
2018-01-27T22:30:04.485Z,199.67
2018-01-27T22:32:32.485Z,195.33
2018-01-27T22:35:00.616Z,204.83
2018-01-27T22:37:28.834Z,206.37
2018-01-27T22:39:56.800Z,200.53
2018-01-27T22:42:24.789Z,196.10
2018-01-27T22:44:53.047Z,200.23
2018-01-27T22:47:20.868Z,198.97
2018-01-27T22:49:49.094Z,201.20
2018-01-27T22:52:17.269Z,198.47
2018-01-27T22:54:45.391Z,195.70
2018-01-27T22:57:13.706Z,196.50
2018-01-27T22:59:41.981Z,198.23
2018-01-27T23:02:10.110Z,200.77
2018-01-27T23:04:38.127Z,193.87
2018-01-27T23:07:06.616Z,195.63
2018-01-27T23:09:35.388Z,196.13
2018-01-27T23:12:03.679Z,196.03
2018-01-27T23:14:31.441Z,194.47
2018-01-27T23:16:59.719Z,192.67
2018-01-27T23:19:27.746Z,193.73
2018-01-27T23:21:55.956Z,195.43
2018-01-27T23:24:24.101Z,196.97
2018-01-27T23:26:52.296Z,193.10
2018-01-27T23:29:20.282Z,195.97
2018-01-27T23:31:48.398Z,189.03
2018-01-27T23:34:17.337Z,194.07
2018-01-27T23:36:45.388Z,195.70
2018-01-27T23:39:13.680Z,188.03
2018-01-27T23:41:41.870Z,180.00
2018-01-27T23:44:10.035Z,191.00
2018-01-27T23:46:38.093Z,196.50
2018-01-27T23:49:06.958Z,189.07
2018-01-27T23:51:35.156Z,187.33
2018-01-27T23:54:03.188Z,180.17
2018-01-27T23:56:31.191Z,183.83
2018-01-27T23:58:59.341Z,192.03
